sensor_id;sensor_type;location;lat;lon;timestamp;temperature;humidity
4056;DHT22;2043;52.184;8.690;2023-06-10T00:01:43;19.80;88.00
4056;DHT22;2043;52.184;8.690;2023-06-10T00:04:16;19.80;88.10
4056;DHT22;2043;52.184;8.690;2023-06-10T00:06:44;19.60;88.60
4056;DHT22;2043;52.184;8.690;2023-06-10T00:09:11;19.60;88.70
4056;DHT22;2043;52.184;8.690;2023-06-10T00:11:38;19.60;88.90
4056;DHT22;2043;52.184;8.690;2023-06-10T00:14:05;19.50;89.10
4056;DHT22;2043;52.184;8.690;2023-06-10T00:16:33;19.50;89.10
4056;DHT22;2043;52.184;8.690;2023-06-10T00:19:00;19.50;89.10
4056;DHT22;2043;52.184;8.690;2023-06-10T00:21:28;19.50;89.00
4056;DHT22;2043;52.184;8.690;2023-06-10T00:23:55;19.50;89.10
4056;DHT22;2043;52.184;8.690;2023-06-10T00:26:22;19.30;89.60
4056;DHT22;2043;52.184;8.690;2023-06-10T00:28:50;19.10;90.10
4056;DHT22;2043;52.184;8.690;2023-06-10T00:31:16;19.10;90.10
4056;DHT22;2043;52.184;8.690;2023-06-10T00:33:44;18.70;91.20
4056;DHT22;2043;52.184;8.690;2023-06-10T00:36:10;18.70;91.50
4056;DHT22;2043;52.184;8.690;2023-06-10T00:38:37;18.70;91.60
4056;DHT22;2043;52.184;8.690;2023-06-10T00:41:04;18.60;91.60
4056;DHT22;2043;52.184;8.690;2023-06-10T00:43:31;18.70;91.70
4056;DHT22;2043;52.184;8.690;2023-06-10T00:45:58;18.70;91.50
4056;DHT22;2043;52.184;8.690;2023-06-10T00:48:27;18.80;91.30
4056;DHT22;2043;52.184;8.690;2023-06-10T00:50:54;18.70;91.10
4056;DHT22;2043;52.184;8.690;2023-06-10T00:53:22;18.50;91.80
4056;DHT22;2043;52.184;8.690;2023-06-10T00:55:49;18.20;92.50
4056;DHT22;2043;52.184;8.690;2023-06-10T00:58:16;18.10;93.00
4056;DHT22;2043;52.184;8.690;2023-06-10T01:00:43;17.90;93.50
4056;DHT22;2043;52.184;8.690;2023-06-10T01:03:11;17.70;94.40
4056;DHT22;2043;52.184;8.690;2023-06-10T01:05:39;17.50;94.80
4056;DHT22;2043;52.184;8.690;2023-06-10T01:08:25;17.40;95.20
4056;DHT22;2043;52.184;8.690;2023-06-10T01:10:59;17.20;95.60
4056;DHT22;2043;52.184;8.690;2023-06-10T01:13:28;17.10;95.90
4056;DHT22;2043;52.184;8.690;2023-06-10T01:15:56;17.10;96.20
4056;DHT22;2043;52.184;8.690;2023-06-10T01:18:23;17.00;96.40
4056;DHT22;2043;52.184;8.690;2023-06-10T01:20:57;16.90;96.40
4056;DHT22;2043;52.184;8.690;2023-06-10T01:23:24;16.80;96.80
4056;DHT22;2043;52.184;8.690;2023-06-10T01:25:59;16.70;97.10
4056;DHT22;2043;52.184;8.690;2023-06-10T01:28:33;16.60;97.40
4056;DHT22;2043;52.184;8.690;2023-06-10T01:33:38;16.40;98.00
4056;DHT22;2043;52.184;8.690;2023-06-10T01:36:07;16.50;98.00
4056;DHT22;2043;52.184;8.690;2023-06-10T01:38:42;16.50;97.80
4056;DHT22;2043;52.184;8.690;2023-06-10T01:41:11;16.50;97.60
4056;DHT22;2043;52.184;8.690;2023-06-10T01:43:39;16.50;97.80
4056;DHT22;2043;52.184;8.690;2023-06-10T01:46:06;16.40;97.90
4056;DHT22;2043;52.184;8.690;2023-06-10T01:48:33;16.50;97.80
4056;DHT22;2043;52.184;8.690;2023-06-10T01:51:00;16.60;97.70
4056;DHT22;2043;52.184;8.690;2023-06-10T01:53:27;16.70;97.10
4056;DHT22;2043;52.184;8.690;2023-06-10T01:55:53;16.60;97.10
4056;DHT22;2043;52.184;8.690;2023-06-10T01:58:20;16.50;97.40
4056;DHT22;2043;52.184;8.690;2023-06-10T02:00:47;16.40;97.80
4056;DHT22;2043;52.184;8.690;2023-06-10T02:03:14;16.30;97.80
4056;DHT22;2043;52.184;8.690;2023-06-10T02:05:41;16.20;98.10
4056;DHT22;2043;52.184;8.690;2023-06-10T02:08:08;15.90;98.60
4056;DHT22;2043;52.184;8.690;2023-06-10T02:13:02;15.70;99.60
4056;DHT22;2043;52.184;8.690;2023-06-10T02:15:29;15.70;99.50
4056;DHT22;2043;52.184;8.690;2023-06-10T02:17:55;15.70;99.50
4056;DHT22;2043;52.184;8.690;2023-06-10T02:20:24;15.80;99.40
4056;DHT22;2043;52.184;8.690;2023-06-10T02:22:51;15.90;98.90
4056;DHT22;2043;52.184;8.690;2023-06-10T02:25:18;15.90;98.60
4056;DHT22;2043;52.184;8.690;2023-06-10T02:27:45;15.70;98.90
4056;DHT22;2043;52.184;8.690;2023-06-10T02:30:12;15.50;99.30
4056;DHT22;2043;52.184;8.690;2023-06-10T02:32:40;15.40;99.50
4056;DHT22;2043;52.184;8.690;2023-06-10T02:35:08;15.40;99.40
4056;DHT22;2043;52.184;8.690;2023-06-10T02:37:38;15.30;99.70
4056;DHT22;2043;52.184;8.690;2023-06-10T02:40:06;15.10;99.90
4056;DHT22;2043;52.184;8.690;2023-06-10T02:42:33;15.10;99.90
4056;DHT22;2043;52.184;8.690;2023-06-10T02:45:00;15.10;99.90
4056;DHT22;2043;52.184;8.690;2023-06-10T02:47:27;15.10;99.90
4056;DHT22;2043;52.184;8.690;2023-06-10T02:52:21;15.10;99.90
4056;DHT22;2043;52.184;8.690;2023-06-10T02:54:48;15.00;99.90
4056;DHT22;2043;52.184;8.690;2023-06-10T02:57:15;15.00;99.90
4056;DHT22;2043;52.184;8.690;2023-06-10T03:02:09;15.10;99.80
4056;DHT22;2043;52.184;8.690;2023-06-10T03:04:38;14.90;99.80
4056;DHT22;2043;52.184;8.690;2023-06-10T03:07:04;14.80;99.90
4056;DHT22;2043;52.184;8.690;2023-06-10T03:09:34;14.70;99.90
4056;DHT22;2043;52.184;8.690;2023-06-10T03:12:01;14.70;99.90
4056;DHT22;2043;52.184;8.690;2023-06-10T03:14:28;14.60;99.90
4056;DHT22;2043;52.184;8.690;2023-06-10T03:16:55;14.60;99.90
4056;DHT22;2043;52.184;8.690;2023-06-10T03:19:22;14.60;99.90
4056;DHT22;2043;52.184;8.690;2023-06-10T03:21:59;14.70;99.90
4056;DHT22;2043;52.184;8.690;2023-06-10T03:24:33;14.60;99.80
4056;DHT22;2043;52.184;8.690;2023-06-10T03:27:00;14.40;99.90
4056;DHT22;2043;52.184;8.690;2023-06-10T03:29:27;14.40;99.90
4056;DHT22;2043;52.184;8.690;2023-06-10T03:31:54;14.30;99.90
4056;DHT22;2043;52.184;8.690;2023-06-10T03:34:21;14.40;99.90
4056;DHT22;2043;52.184;8.690;2023-06-10T03:36:48;14.40;99.90
4056;DHT22;2043;52.184;8.690;2023-06-10T03:39:14;14.40;99.90
4056;DHT22;2043;52.184;8.690;2023-06-10T03:41:42;14.40;99.90
4056;DHT22;2043;52.184;8.690;2023-06-10T03:44:08;14.40;99.90
4056;DHT22;2043;52.184;8.690;2023-06-10T03:46:35;14.30;99.90
4056;DHT22;2043;52.184;8.690;2023-06-10T03:49:02;14.40;99.90
4056;DHT22;2043;52.184;8.690;2023-06-10T03:51:29;14.50;99.90
4056;DHT22;2043;52.184;8.690;2023-06-10T03:53:56;14.60;99.90
4056;DHT22;2043;52.184;8.690;2023-06-10T03:56:23;14.70;99.70
4056;DHT22;2043;52.184;8.690;2023-06-10T03:58:50;14.70;99.40
4056;DHT22;2043;52.184;8.690;2023-06-10T04:01:16;14.70;99.30
4056;DHT22;2043;52.184;8.690;2023-06-10T04:03:44;14.70;99.40
4056;DHT22;2043;52.184;8.690;2023-06-10T04:06:11;14.60;99.70
4056;DHT22;2043;52.184;8.690;2023-06-10T04:08:38;14.70;99.60
4056;DHT22;2043;52.184;8.690;2023-06-10T04:11:05;14.90;98.90
4056;DHT22;2043;52.184;8.690;2023-06-10T04:13:32;15.10;98.10
4056;DHT22;2043;52.184;8.690;2023-06-10T04:15:59;15.30;97.30
4056;DHT22;2043;52.184;8.690;2023-06-10T04:18:26;15.50;96.70
4056;DHT22;2043;52.184;8.690;2023-06-10T04:20:52;15.60;96.20
4056;DHT22;2043;52.184;8.690;2023-06-10T04:23:19;15.60;96.00
4056;DHT22;2043;52.184;8.690;2023-06-10T04:25:46;15.70;96.00
4056;DHT22;2043;52.184;8.690;2023-06-10T04:28:13;15.80;95.70
4056;DHT22;2043;52.184;8.690;2023-06-10T04:30:40;15.80;95.50
4056;DHT22;2043;52.184;8.690;2023-06-10T04:33:08;15.90;95.60
4056;DHT22;2043;52.184;8.690;2023-06-10T04:35:36;15.90;95.60
4056;DHT22;2043;52.184;8.690;2023-06-10T04:40:29;16.00;95.60
4056;DHT22;2043;52.184;8.690;2023-06-10T04:42:57;16.10;95.70
4056;DHT22;2043;52.184;8.690;2023-06-10T04:45:23;16.20;95.50
4056;DHT22;2043;52.184;8.690;2023-06-10T04:47:50;16.20;95.60
4056;DHT22;2043;52.184;8.690;2023-06-10T04:50:18;16.20;95.70
4056;DHT22;2043;52.184;8.690;2023-06-10T04:52:45;16.20;95.60
4056;DHT22;2043;52.184;8.690;2023-06-10T04:55:12;16.10;95.70
4056;DHT22;2043;52.184;8.690;2023-06-10T04:57:38;16.10;95.70
4056;DHT22;2043;52.184;8.690;2023-06-10T05:00:06;16.10;95.70
4056;DHT22;2043;52.184;8.690;2023-06-10T05:02:33;16.20;95.50
4056;DHT22;2043;52.184;8.690;2023-06-10T05:05:00;16.20;95.60
4056;DHT22;2043;52.184;8.690;2023-06-10T05:07:26;16.30;95.60
4056;DHT22;2043;52.184;8.690;2023-06-10T05:09:53;16.40;95.40
4056;DHT22;2043;52.184;8.690;2023-06-10T05:12:20;16.60;95.00
4056;DHT22;2043;52.184;8.690;2023-06-10T05:14:47;16.60;95.00
4056;DHT22;2043;52.184;8.690;2023-06-10T05:17:13;16.70;94.80
4056;DHT22;2043;52.184;8.690;2023-06-10T05:19:40;16.80;94.40
4056;DHT22;2043;52.184;8.690;2023-06-10T05:24:35;17.00;94.10
4056;DHT22;2043;52.184;8.690;2023-06-10T05:27:02;17.00;94.00
4056;DHT22;2043;52.184;8.690;2023-06-10T05:29:29;17.10;93.90
4056;DHT22;2043;52.184;8.690;2023-06-10T05:31:56;17.20;93.60
4056;DHT22;2043;52.184;8.690;2023-06-10T05:34:24;17.20;93.20
4056;DHT22;2043;52.184;8.690;2023-06-10T05:36:51;17.40;92.90
4056;DHT22;2043;52.184;8.690;2023-06-10T05:39:17;17.50;92.30
4056;DHT22;2043;52.184;8.690;2023-06-10T05:41:45;17.60;91.70
4056;DHT22;2043;52.184;8.690;2023-06-10T05:44:12;17.40;91.50
4056;DHT22;2043;52.184;8.690;2023-06-10T05:46:40;17.60;91.50
4056;DHT22;2043;52.184;8.690;2023-06-10T05:49:06;17.80;91.10
4056;DHT22;2043;52.184;8.690;2023-06-10T05:51:33;17.90;91.10
4056;DHT22;2043;52.184;8.690;2023-06-10T05:54:01;17.90;91.10
4056;DHT22;2043;52.184;8.690;2023-06-10T05:56:28;18.00;90.70
4056;DHT22;2043;52.184;8.690;2023-06-10T05:58:55;18.10;90.60
4056;DHT22;2043;52.184;8.690;2023-06-10T06:01:22;18.20;90.50
4056;DHT22;2043;52.184;8.690;2023-06-10T06:03:49;18.40;90.10
4056;DHT22;2043;52.184;8.690;2023-06-10T06:06:16;18.60;89.30
4056;DHT22;2043;52.184;8.690;2023-06-10T06:08:43;18.60;89.00
4056;DHT22;2043;52.184;8.690;2023-06-10T06:11:10;18.60;89.20
4056;DHT22;2043;52.184;8.690;2023-06-10T06:13:37;18.70;88.90
4056;DHT22;2043;52.184;8.690;2023-06-10T06:16:03;18.80;88.50
4056;DHT22;2043;52.184;8.690;2023-06-10T06:18:30;18.80;89.00
4056;DHT22;2043;52.184;8.690;2023-06-10T06:20:57;18.90;88.90
4056;DHT22;2043;52.184;8.690;2023-06-10T06:23:24;19.10;88.50
4056;DHT22;2043;52.184;8.690;2023-06-10T06:25:51;19.30;88.40
4056;DHT22;2043;52.184;8.690;2023-06-10T06:28:18;19.30;87.80
4056;DHT22;2043;52.184;8.690;2023-06-10T06:30:47;19.20;87.40
4056;DHT22;2043;52.184;8.690;2023-06-10T06:33:14;19.30;87.90
4056;DHT22;2043;52.184;8.690;2023-06-10T06:35:41;19.20;88.70
4056;DHT22;2043;52.184;8.690;2023-06-10T06:38:07;19.30;88.30
4056;DHT22;2043;52.184;8.690;2023-06-10T06:40:34;19.50;87.90
4056;DHT22;2043;52.184;8.690;2023-06-10T06:43:01;19.50;88.00
4056;DHT22;2043;52.184;8.690;2023-06-10T06:45:28;19.50;87.50
4056;DHT22;2043;52.184;8.690;2023-06-10T06:47:55;19.70;87.50
4056;DHT22;2043;52.184;8.690;2023-06-10T06:50:22;19.80;87.30
4056;DHT22;2043;52.184;8.690;2023-06-10T06:52:49;20.20;86.90
4056;DHT22;2043;52.184;8.690;2023-06-10T06:55:16;20.20;86.60
4056;DHT22;2043;52.184;8.690;2023-06-10T06:57:43;20.30;86.30
4056;DHT22;2043;52.184;8.690;2023-06-10T07:00:10;20.30;86.20
4056;DHT22;2043;52.184;8.690;2023-06-10T07:02:37;20.20;86.40
4056;DHT22;2043;52.184;8.690;2023-06-10T07:05:04;20.30;86.00
4056;DHT22;2043;52.184;8.690;2023-06-10T07:07:32;20.40;86.10
4056;DHT22;2043;52.184;8.690;2023-06-10T07:09:58;20.50;85.70
4056;DHT22;2043;52.184;8.690;2023-06-10T07:12:25;20.60;85.90
4056;DHT22;2043;52.184;8.690;2023-06-10T07:14:52;20.70;85.70
4056;DHT22;2043;52.184;8.690;2023-06-10T07:17:19;20.70;85.20
4056;DHT22;2043;52.184;8.690;2023-06-10T07:19:46;20.90;85.10
4056;DHT22;2043;52.184;8.690;2023-06-10T07:22:14;21.00;85.30
4056;DHT22;2043;52.184;8.690;2023-06-10T07:24:41;21.10;85.20
4056;DHT22;2043;52.184;8.690;2023-06-10T07:27:08;21.30;85.50
4056;DHT22;2043;52.184;8.690;2023-06-10T07:29:35;21.40;84.70
4056;DHT22;2043;52.184;8.690;2023-06-10T07:32:05;21.40;84.70
4056;DHT22;2043;52.184;8.690;2023-06-10T07:34:32;21.60;83.60
4056;DHT22;2043;52.184;8.690;2023-06-10T07:36:59;21.60;83.40
4056;DHT22;2043;52.184;8.690;2023-06-10T07:39:26;21.60;83.40
4056;DHT22;2043;52.184;8.690;2023-06-10T07:41:53;21.60;84.00
4056;DHT22;2043;52.184;8.690;2023-06-10T07:44:20;21.60;83.80
4056;DHT22;2043;52.184;8.690;2023-06-10T07:46:47;21.50;84.60
4056;DHT22;2043;52.184;8.690;2023-06-10T07:49:14;21.60;84.70
4056;DHT22;2043;52.184;8.690;2023-06-10T07:51:41;21.70;84.00
4056;DHT22;2043;52.184;8.690;2023-06-10T07:54:08;21.70;84.00
4056;DHT22;2043;52.184;8.690;2023-06-10T07:56:35;22.00;83.30
4056;DHT22;2043;52.184;8.690;2023-06-10T07:59:02;22.20;83.00
4056;DHT22;2043;52.184;8.690;2023-06-10T08:01:29;22.30;83.00
4056;DHT22;2043;52.184;8.690;2023-06-10T08:03:56;22.40;82.40
4056;DHT22;2043;52.184;8.690;2023-06-10T08:06:24;22.70;82.20
4056;DHT22;2043;52.184;8.690;2023-06-10T08:08:51;22.80;81.40
4056;DHT22;2043;52.184;8.690;2023-06-10T08:11:17;22.80;81.70
4056;DHT22;2043;52.184;8.690;2023-06-10T08:13:44;22.80;81.70
4056;DHT22;2043;52.184;8.690;2023-06-10T08:16:11;22.90;81.00
4056;DHT22;2043;52.184;8.690;2023-06-10T08:18:38;22.90;81.80
4056;DHT22;2043;52.184;8.690;2023-06-10T08:21:05;22.90;81.40
4056;DHT22;2043;52.184;8.690;2023-06-10T08:23:32;23.10;81.10
4056;DHT22;2043;52.184;8.690;2023-06-10T08:25:58;23.10;81.10
4056;DHT22;2043;52.184;8.690;2023-06-10T08:28:25;23.00;81.20
4056;DHT22;2043;52.184;8.690;2023-06-10T08:30:52;23.10;81.00
4056;DHT22;2043;52.184;8.690;2023-06-10T08:33:22;23.20;80.80
4056;DHT22;2043;52.184;8.690;2023-06-10T08:35:49;23.40;79.90
4056;DHT22;2043;52.184;8.690;2023-06-10T08:38:16;23.50;79.40
4056;DHT22;2043;52.184;8.690;2023-06-10T08:40:43;23.50;78.90
4056;DHT22;2043;52.184;8.690;2023-06-10T08:43:41;23.50;78.70
4056;DHT22;2043;52.184;8.690;2023-06-10T08:46:09;23.50;78.70
4056;DHT22;2043;52.184;8.690;2023-06-10T08:48:42;23.60;79.00
4056;DHT22;2043;52.184;8.690;2023-06-10T08:51:10;23.70;78.70
4056;DHT22;2043;52.184;8.690;2023-06-10T08:53:44;24.00;78.10
4056;DHT22;2043;52.184;8.690;2023-06-10T08:56:15;24.10;78.20
4056;DHT22;2043;52.184;8.690;2023-06-10T08:58:42;24.10;78.20
4056;DHT22;2043;52.184;8.690;2023-06-10T09:01:10;24.30;77.70
4056;DHT22;2043;52.184;8.690;2023-06-10T09:03:37;24.30;78.40
4056;DHT22;2043;52.184;8.690;2023-06-10T09:06:05;24.30;78.40
4056;DHT22;2043;52.184;8.690;2023-06-10T09:08:35;24.60;78.70
4056;DHT22;2043;52.184;8.690;2023-06-10T09:11:02;24.80;78.70
4056;DHT22;2043;52.184;8.690;2023-06-10T09:13:29;24.70;78.10
4056;DHT22;2043;52.184;8.690;2023-06-10T09:15:56;24.80;78.10
4056;DHT22;2043;52.184;8.690;2023-06-10T09:18:28;24.80;78.30
4056;DHT22;2043;52.184;8.690;2023-06-10T09:20:55;25.00;77.50
4056;DHT22;2043;52.184;8.690;2023-06-10T09:23:22;25.10;77.70
4056;DHT22;2043;52.184;8.690;2023-06-10T09:25:56;25.20;77.80
4056;DHT22;2043;52.184;8.690;2023-06-10T09:28:24;25.30;77.70
4056;DHT22;2043;52.184;8.690;2023-06-10T09:31:02;25.60;77.10
4056;DHT22;2043;52.184;8.690;2023-06-10T09:33:30;25.90;76.70
4056;DHT22;2043;52.184;8.690;2023-06-10T09:35:57;26.00;76.70
4056;DHT22;2043;52.184;8.690;2023-06-10T09:38:33;26.20;76.30
4056;DHT22;2043;52.184;8.690;2023-06-10T09:41:00;26.40;75.60
4056;DHT22;2043;52.184;8.690;2023-06-10T09:43:41;26.50;75.50
4056;DHT22;2043;52.184;8.690;2023-06-10T09:46:19;26.50;75.20
4056;DHT22;2043;52.184;8.690;2023-06-10T09:48:47;26.60;75.40
4056;DHT22;2043;52.184;8.690;2023-06-10T09:51:15;26.70;75.00
4056;DHT22;2043;52.184;8.690;2023-06-10T09:53:53;26.50;71.90
4056;DHT22;2043;52.184;8.690;2023-06-10T09:56:21;26.50;73.40
4056;DHT22;2043;52.184;8.690;2023-06-10T09:58:53;26.60;73.20
4056;DHT22;2043;52.184;8.690;2023-06-10T10:01:19;26.90;72.80
4056;DHT22;2043;52.184;8.690;2023-06-10T10:03:50;26.90;73.50
4056;DHT22;2043;52.184;8.690;2023-06-10T10:06:18;26.90;73.60
4056;DHT22;2043;52.184;8.690;2023-06-10T10:08:47;27.20;72.00
4056;DHT22;2043;52.184;8.690;2023-06-10T10:11:17;27.20;71.50
4056;DHT22;2043;52.184;8.690;2023-06-10T10:13:45;27.30;71.20
4056;DHT22;2043;52.184;8.690;2023-06-10T10:16:19;27.20;71.30
4056;DHT22;2043;52.184;8.690;2023-06-10T10:18:55;27.40;69.60
4056;DHT22;2043;52.184;8.690;2023-06-10T10:21:24;27.50;69.50
4056;DHT22;2043;52.184;8.690;2023-06-10T10:24:07;27.50;69.70
4056;DHT22;2043;52.184;8.690;2023-06-10T10:26:38;27.40;69.80
4056;DHT22;2043;52.184;8.690;2023-06-10T10:29:14;27.70;70.60
4056;DHT22;2043;52.184;8.690;2023-06-10T10:31:43;27.80;68.80
4056;DHT22;2043;52.184;8.690;2023-06-10T10:34:15;27.70;69.20
4056;DHT22;2043;52.184;8.690;2023-06-10T10:36:46;27.60;69.70
4056;DHT22;2043;52.184;8.690;2023-06-10T10:39:15;27.70;69.80
4056;DHT22;2043;52.184;8.690;2023-06-10T10:41:42;27.60;69.50
4056;DHT22;2043;52.184;8.690;2023-06-10T10:44:10;27.80;70.40
4056;DHT22;2043;52.184;8.690;2023-06-10T10:46:49;27.90;70.20
4056;DHT22;2043;52.184;8.690;2023-06-10T10:49:17;28.00;70.80
4056;DHT22;2043;52.184;8.690;2023-06-10T10:51:58;28.10;70.70
4056;DHT22;2043;52.184;8.690;2023-06-10T10:54:30;28.10;69.10
4056;DHT22;2043;52.184;8.690;2023-06-10T10:57:18;28.20;70.00
4056;DHT22;2043;52.184;8.690;2023-06-10T11:02:19;28.10;69.90
4056;DHT22;2043;52.184;8.690;2023-06-10T11:04:58;28.00;70.60
4056;DHT22;2043;52.184;8.690;2023-06-10T11:07:30;27.80;71.20
4056;DHT22;2043;52.184;8.690;2023-06-10T11:12:40;28.00;70.80
4056;DHT22;2043;52.184;8.690;2023-06-10T11:15:07;28.20;71.60
4056;DHT22;2043;52.184;8.690;2023-06-10T11:17:34;28.50;70.40
4056;DHT22;2043;52.184;8.690;2023-06-10T11:20:01;28.70;70.00
4056;DHT22;2043;52.184;8.690;2023-06-10T11:22:28;28.80;69.30
4056;DHT22;2043;52.184;8.690;2023-06-10T11:24:55;29.00;67.90
4056;DHT22;2043;52.184;8.690;2023-06-10T11:27:23;28.90;68.10
4056;DHT22;2043;52.184;8.690;2023-06-10T11:32:32;28.90;68.20
4056;DHT22;2043;52.184;8.690;2023-06-10T11:35:03;28.80;69.10
4056;DHT22;2043;52.184;8.690;2023-06-10T11:37:30;28.90;68.40
4056;DHT22;2043;52.184;8.690;2023-06-10T11:39:57;29.10;68.80
4056;DHT22;2043;52.184;8.690;2023-06-10T11:42:25;29.20;67.20
4056;DHT22;2043;52.184;8.690;2023-06-10T11:44:52;29.40;67.40
4056;DHT22;2043;52.184;8.690;2023-06-10T11:47:20;29.40;67.20
4056;DHT22;2043;52.184;8.690;2023-06-10T11:49:56;29.50;66.30
4056;DHT22;2043;52.184;8.690;2023-06-10T11:52:28;29.50;64.40
4056;DHT22;2043;52.184;8.690;2023-06-10T11:54:55;29.60;64.80
4056;DHT22;2043;52.184;8.690;2023-06-10T11:57:22;29.60;63.60
4056;DHT22;2043;52.184;8.690;2023-06-10T11:59:49;29.70;62.40
4056;DHT22;2043;52.184;8.690;2023-06-10T12:02:17;29.30;59.00
4056;DHT22;2043;52.184;8.690;2023-06-10T12:04:44;29.10;61.80
4056;DHT22;2043;52.184;8.690;2023-06-10T12:07:17;29.20;61.60
4056;DHT22;2043;52.184;8.690;2023-06-10T12:09:45;29.10;61.40
4056;DHT22;2043;52.184;8.690;2023-06-10T12:12:12;29.40;61.30
4056;DHT22;2043;52.184;8.690;2023-06-10T12:14:57;29.60;59.20
4056;DHT22;2043;52.184;8.690;2023-06-10T12:20:08;30.00;60.90
4056;DHT22;2043;52.184;8.690;2023-06-10T12:22:40;30.00;60.10
4056;DHT22;2043;52.184;8.690;2023-06-10T12:25:09;29.80;61.10
4056;DHT22;2043;52.184;8.690;2023-06-10T12:27:37;30.00;60.70
4056;DHT22;2043;52.184;8.690;2023-06-10T12:30:05;30.10;60.00
4056;DHT22;2043;52.184;8.690;2023-06-10T12:32:37;30.30;60.70
4056;DHT22;2043;52.184;8.690;2023-06-10T12:35:05;30.30;61.10
4056;DHT22;2043;52.184;8.690;2023-06-10T12:37:33;30.50;59.80
4056;DHT22;2043;52.184;8.690;2023-06-10T12:40:01;30.50;59.50
4056;DHT22;2043;52.184;8.690;2023-06-10T12:42:30;30.40;59.70
4056;DHT22;2043;52.184;8.690;2023-06-10T12:44:58;30.10;61.80
4056;DHT22;2043;52.184;8.690;2023-06-10T12:47:34;30.00;63.60
4056;DHT22;2043;52.184;8.690;2023-06-10T12:50:02;30.00;63.80
4056;DHT22;2043;52.184;8.690;2023-06-10T12:52:30;30.20;63.90
4056;DHT22;2043;52.184;8.690;2023-06-10T12:54:56;30.20;63.90
4056;DHT22;2043;52.184;8.690;2023-06-10T12:57:24;30.10;64.40
4056;DHT22;2043;52.184;8.690;2023-06-10T12:59:50;30.00;64.90
4056;DHT22;2043;52.184;8.690;2023-06-10T13:02:19;30.00;65.40
4056;DHT22;2043;52.184;8.690;2023-06-10T13:04:47;30.00;65.60
4056;DHT22;2043;52.184;8.690;2023-06-10T13:07:14;30.00;65.60
4056;DHT22;2043;52.184;8.690;2023-06-10T13:09:42;30.10;65.80
4056;DHT22;2043;52.184;8.690;2023-06-10T13:12:10;30.10;65.50
4056;DHT22;2043;52.184;8.690;2023-06-10T13:14:42;30.40;65.80
4056;DHT22;2043;52.184;8.690;2023-06-10T13:17:09;30.60;65.40
4056;DHT22;2043;52.184;8.690;2023-06-10T13:19:36;30.50;65.50
4056;DHT22;2043;52.184;8.690;2023-06-10T13:22:03;30.50;65.40
4056;DHT22;2043;52.184;8.690;2023-06-10T13:24:30;30.40;65.70
4056;DHT22;2043;52.184;8.690;2023-06-10T13:26:56;30.30;65.60
4056;DHT22;2043;52.184;8.690;2023-06-10T13:29:24;30.20;66.10
4056;DHT22;2043;52.184;8.690;2023-06-10T13:31:50;30.30;66.30
4056;DHT22;2043;52.184;8.690;2023-06-10T13:34:18;30.50;66.20
4056;DHT22;2043;52.184;8.690;2023-06-10T13:36:44;30.10;66.50
4056;DHT22;2043;52.184;8.690;2023-06-10T13:39:11;30.10;66.50
4056;DHT22;2043;52.184;8.690;2023-06-10T13:41:41;30.20;66.70
4056;DHT22;2043;52.184;8.690;2023-06-10T13:44:08;30.20;66.00
4056;DHT22;2043;52.184;8.690;2023-06-10T13:46:35;30.00;66.50
4056;DHT22;2043;52.184;8.690;2023-06-10T13:49:01;30.20;66.70
4056;DHT22;2043;52.184;8.690;2023-06-10T13:51:28;30.30;67.00
4056;DHT22;2043;52.184;8.690;2023-06-10T13:53:55;30.30;66.90
4056;DHT22;2043;52.184;8.690;2023-06-10T13:56:22;30.40;66.50
4056;DHT22;2043;52.184;8.690;2023-06-10T13:58:49;30.50;66.40
4056;DHT22;2043;52.184;8.690;2023-06-10T14:01:16;30.70;65.80
4056;DHT22;2043;52.184;8.690;2023-06-10T14:03:43;30.50;66.40
4056;DHT22;2043;52.184;8.690;2023-06-10T14:06:10;30.50;66.50
4056;DHT22;2043;52.184;8.690;2023-06-10T14:08:39;30.50;66.40
4056;DHT22;2043;52.184;8.690;2023-06-10T14:11:06;30.60;66.10
4056;DHT22;2043;52.184;8.690;2023-06-10T14:13:33;30.70;66.80
4056;DHT22;2043;52.184;8.690;2023-06-10T14:16:00;30.70;66.10
4056;DHT22;2043;52.184;8.690;2023-06-10T14:18:29;30.60;66.00
4056;DHT22;2043;52.184;8.690;2023-06-10T14:20:56;30.70;66.40
4056;DHT22;2043;52.184;8.690;2023-06-10T14:23:23;30.40;65.90
4056;DHT22;2043;52.184;8.690;2023-06-10T14:25:52;30.00;66.70
4056;DHT22;2043;52.184;8.690;2023-06-10T14:28:20;30.20;67.40
4056;DHT22;2043;52.184;8.690;2023-06-10T14:30:47;30.20;67.00
4056;DHT22;2043;52.184;8.690;2023-06-10T14:33:13;30.30;66.30
4056;DHT22;2043;52.184;8.690;2023-06-10T14:35:40;30.20;67.10
4056;DHT22;2043;52.184;8.690;2023-06-10T14:38:09;30.20;67.10
4056;DHT22;2043;52.184;8.690;2023-06-10T14:40:36;30.30;67.40
4056;DHT22;2043;52.184;8.690;2023-06-10T14:43:03;30.50;66.60
4056;DHT22;2043;52.184;8.690;2023-06-10T14:45:36;30.40;66.10
4056;DHT22;2043;52.184;8.690;2023-06-10T14:48:04;30.60;66.00
4056;DHT22;2043;52.184;8.690;2023-06-10T14:50:31;30.50;66.20
4056;DHT22;2043;52.184;8.690;2023-06-10T14:52:59;30.40;66.40
4056;DHT22;2043;52.184;8.690;2023-06-10T14:55:25;30.40;66.60
4056;DHT22;2043;52.184;8.690;2023-06-10T14:57:52;30.50;67.20
4056;DHT22;2043;52.184;8.690;2023-06-10T15:00:19;30.50;66.40
4056;DHT22;2043;52.184;8.690;2023-06-10T15:02:50;30.60;66.50
4056;DHT22;2043;52.184;8.690;2023-06-10T15:05:18;30.20;66.90
4056;DHT22;2043;52.184;8.690;2023-06-10T15:07:47;29.80;67.40
4056;DHT22;2043;52.184;8.690;2023-06-10T15:10:15;29.80;67.80
4056;DHT22;2043;52.184;8.690;2023-06-10T15:12:42;29.90;67.30
4056;DHT22;2043;52.184;8.690;2023-06-10T15:15:09;30.20;67.30
4056;DHT22;2043;52.184;8.690;2023-06-10T15:17:37;30.20;67.70
4056;DHT22;2043;52.184;8.690;2023-06-10T15:20:05;30.20;68.40
4056;DHT22;2043;52.184;8.690;2023-06-10T15:22:32;30.30;67.90
4056;DHT22;2043;52.184;8.690;2023-06-10T15:25:02;30.20;66.40
4056;DHT22;2043;52.184;8.690;2023-06-10T15:27:46;30.20;66.90
4056;DHT22;2043;52.184;8.690;2023-06-10T15:30:13;30.30;67.70
4056;DHT22;2043;52.184;8.690;2023-06-10T15:32:40;30.40;67.10
4056;DHT22;2043;52.184;8.690;2023-06-10T15:35:07;30.40;67.30
4056;DHT22;2043;52.184;8.690;2023-06-10T15:37:35;30.30;67.30
4056;DHT22;2043;52.184;8.690;2023-06-10T15:40:02;30.30;67.80
4056;DHT22;2043;52.184;8.690;2023-06-10T15:42:29;30.30;66.60
4056;DHT22;2043;52.184;8.690;2023-06-10T15:44:56;30.20;65.80
4056;DHT22;2043;52.184;8.690;2023-06-10T15:47:22;30.00;65.90
4056;DHT22;2043;52.184;8.690;2023-06-10T15:49:49;29.70;67.30
4056;DHT22;2043;52.184;8.690;2023-06-10T15:52:16;29.80;67.20
4056;DHT22;2043;52.184;8.690;2023-06-10T15:54:43;29.90;67.70
4056;DHT22;2043;52.184;8.690;2023-06-10T15:57:10;29.90;67.30
4056;DHT22;2043;52.184;8.690;2023-06-10T15:59:37;29.90;66.70
4056;DHT22;2043;52.184;8.690;2023-06-10T16:02:04;29.90;67.00
4056;DHT22;2043;52.184;8.690;2023-06-10T16:04:31;29.80;64.60
4056;DHT22;2043;52.184;8.690;2023-06-10T16:06:58;29.60;64.90
4056;DHT22;2043;52.184;8.690;2023-06-10T16:09:25;29.60;65.50
4056;DHT22;2043;52.184;8.690;2023-06-10T16:11:51;29.60;66.20
4056;DHT22;2043;52.184;8.690;2023-06-10T16:14:18;29.50;66.90
4056;DHT22;2043;52.184;8.690;2023-06-10T16:16:45;29.60;66.50
4056;DHT22;2043;52.184;8.690;2023-06-10T16:19:12;29.50;66.70
4056;DHT22;2043;52.184;8.690;2023-06-10T16:21:39;29.50;67.30
4056;DHT22;2043;52.184;8.690;2023-06-10T16:24:07;29.60;67.50
4056;DHT22;2043;52.184;8.690;2023-06-10T16:26:34;29.50;67.10
4056;DHT22;2043;52.184;8.690;2023-06-10T16:29:01;29.70;67.40
4056;DHT22;2043;52.184;8.690;2023-06-10T16:31:28;29.70;67.40
4056;DHT22;2043;52.184;8.690;2023-06-10T16:33:55;29.40;67.30